Time;durP1;ratioP1;P1;durP2;ratioP2;P2;SDS_P1;SDS_P2;PMS_P1;PMS_P2;Temp;Humidity;BMP_temperature;BMP_pressure;BME280_temperature;BME280_humidity;BME280_pressure;Samples;Min_cycle;Max_cycle;Signal;HPM_P1;HPM_P2
2022/12/21 00:00:08;;;;;;;;;28.00;26.00;;;;;;;;5079356;27;45490;-64
2022/12/21 00:02:34;;;;;;;;;28.33;27.00;;;;;;;;5080031;27;45296;-64
2022/12/21 00:04:59;;;;;;;;;37.00;29.33;;;;;;;;5079010;27;46270;-64
2022/12/21 00:07:24;;;;;;;;;37.00;31.33;;;;;;;;5078373;27;45592;-64
2022/12/21 00:09:50;;;;;;;;;34.00;29.50;;;;;;;;5080070;28;45338;-64
2022/12/21 00:12:15;;;;;;;;;28.00;25.33;;;;;;;;5080041;27;45346;-64
2022/12/21 00:14:40;;;;;;;;;32.67;30.33;;;;;;;;5060771;27;46625;-64
2022/12/21 00:17:05;;;;;;;;;29.00;24.67;;;;;;;;5077480;27;45561;-64
2022/12/21 00:19:30;;;;;;;;;35.33;31.00;;;;;;;;5078913;27;45314;-64
2022/12/21 00:21:56;;;;;;;;;39.00;32.00;;;;;;;;5078930;27;45241;-64
2022/12/21 00:24:22;;;;;;;;;35.33;30.00;;;;;;;;5079258;28;46327;-64
2022/12/21 00:26:47;;;;;;;;;29.33;28.00;;;;;;;;5074090;28;45622;-64
2022/12/21 00:29:12;;;;;;;;;32.33;29.67;;;;;;;;5059189;28;45210;-64
2022/12/21 00:31:40;;;;;;;;;33.33;32.00;;;;;;;;5079490;27;45258;-64
2022/12/21 00:34:06;;;;;;;;;42.00;32.67;;;;;;;;5079199;27;46531;-64
2022/12/21 00:36:32;;;;;;;;;43.33;33.33;;;;;;;;5077757;28;45452;-64
2022/12/21 00:38:58;;;;;;;;;45.67;35.67;;;;;;;;5079384;28;45419;-64
2022/12/21 00:41:23;;;;;;;;;46.33;34.33;;;;;;;;5079555;28;45529;-64
2022/12/21 00:43:50;;;;;;;;;38.33;32.00;;;;;;;;5078052;27;46497;-64
2022/12/21 00:46:22;;;;;;;;;46.00;37.00;;;;;;;;5078938;28;45405;-64
2022/12/21 00:48:48;;;;;;;;;50.00;36.00;;;;;;;;5099480;27;45273;-64
2022/12/21 00:51:14;;;;;;;;;41.67;34.00;;;;;;;;5093862;27;45477;-64
2022/12/21 00:53:40;;;;;;;;;47.00;37.33;;;;;;;;5077388;27;45598;-64
2022/12/21 00:56:06;;;;;;;;;44.00;36.33;;;;;;;;5076429;27;45509;-64
2022/12/21 00:58:32;;;;;;;;;48.00;38.00;;;;;;;;5077667;27;45463;-64
2022/12/21 01:00:58;;;;;;;;;49.00;38.00;;;;;;;;5078063;28;45534;-64
2022/12/21 01:03:24;;;;;;;;;48.00;37.33;;;;;;;;5078084;28;46577;-65
2022/12/21 01:05:51;;;;;;;;;40.33;34.67;;;;;;;;5077800;27;45539;-65
2022/12/21 01:08:16;;;;;;;;;48.67;37.33;;;;;;;;5077917;27;45438;-64
2022/12/21 01:10:42;;;;;;;;;41.00;35.00;;;;;;;;5078007;28;45399;-65
2022/12/21 01:13:07;;;;;;;;;42.67;35.33;;;;;;;;5077996;27;45554;-65
2022/12/21 01:15:33;;;;;;;;;44.33;34.33;;;;;;;;5086338;27;45358;-65
2022/12/21 01:17:58;;;;;;;;;39.00;34.33;;;;;;;;5099201;27;45307;-64
2022/12/21 01:20:23;;;;;;;;;46.00;36.00;;;;;;;;5098997;27;45347;-65
2022/12/21 01:22:48;;;;;;;;;49.67;38.33;;;;;;;;5078643;27;45408;-65
2022/12/21 01:25:13;;;;;;;;;43.00;37.33;;;;;;;;5078685;27;45415;-65
2022/12/21 01:27:39;;;;;;;;;36.67;33.33;;;;;;;;5076978;28;45535;-65
2022/12/21 01:30:04;;;;;;;;;46.00;36.67;;;;;;;;5078138;27;45511;-65
2022/12/21 01:32:30;;;;;;;;;38.00;32.33;;;;;;;;5077004;27;45457;-64
2022/12/21 01:34:56;;;;;;;;;40.33;36.00;;;;;;;;5076826;27;46277;-65
2022/12/21 01:37:22;;;;;;;;;39.67;35.00;;;;;;;;5078515;28;45385;-65
2022/12/21 01:39:47;;;;;;;;;38.00;34.33;;;;;;;;5077869;27;45235;-65
2022/12/21 01:42:12;;;;;;;;;45.67;36.00;;;;;;;;5077431;27;46291;-65
2022/12/21 01:45:02;;;;;;;;;38.00;34.00;;;;;;;;5077072;28;45387;-65
2022/12/21 01:47:30;;;;;;;;;35.33;32.00;;;;;;;;4974422;28;45510;-65
2022/12/21 01:49:59;;;;;;;;;43.67;36.00;;;;;;;;4958442;28;45912;-65
2022/12/21 01:52:26;;;;;;;;;44.67;35.33;;;;;;;;4975395;28;46499;-65
2022/12/21 01:54:53;;;;;;;;;36.33;34.00;;;;;;;;4975286;28;45391;-65
2022/12/21 01:57:18;;;;;;;;;42.67;35.00;;;;;;;;4975384;28;45507;-65
2022/12/21 01:59:52;;;;;;;;;52.00;37.67;;;;;;;;4975171;28;45917;-65
2022/12/21 02:02:21;;;;;;;;;34.33;29.67;;;;;;;;4975241;28;46621;-65
2022/12/21 02:04:46;;;;;;;;;41.00;34.00;;;;;;;;4975729;28;45528;-65
2022/12/21 02:07:11;;;;;;;;;52.67;39.33;;;;;;;;4974633;28;48416;-65
2022/12/21 02:09:37;;;;;;;;;45.00;36.00;;;;;;;;4975691;28;45447;-65
2022/12/21 02:12:03;;;;;;;;;46.33;34.33;;;;;;;;4975148;28;45934;-65
2022/12/21 02:14:31;;;;;;;;;40.67;33.67;;;;;;;;4975125;28;45783;-65
2022/12/21 02:16:59;;;;;;;;;45.67;35.67;;;;;;;;4975571;28;45598;-64
2022/12/21 02:19:27;;;;;;;;;46.67;37.33;;;;;;;;4975682;28;45437;-65
2022/12/21 02:21:55;;;;;;;;;39.67;35.33;;;;;;;;4974220;28;46264;-65
2022/12/21 02:24:22;;;;;;;;;44.67;35.33;;;;;;;;5021156;28;46007;-65
2022/12/21 02:26:55;;;;;;;;;42.00;34.67;;;;;;;;5075959;27;45544;-65
2022/12/21 02:29:21;;;;;;;;;43.67;37.33;;;;;;;;5077614;27;45381;-65
2022/12/21 02:31:49;;;;;;;;;42.67;37.00;;;;;;;;5075206;28;46086;-65
2022/12/21 02:34:26;;;;;;;;;44.00;35.67;;;;;;;;5076985;28;45439;-65
2022/12/21 02:36:51;;;;;;;;;44.67;35.33;;;;;;;;5075932;28;45406;-65
2022/12/21 02:39:35;;;;;;;;;44.33;36.00;;;;;;;;5075914;27;45306;-64
2022/12/21 02:42:02;;;;;;;;;39.33;32.67;;;;;;;;5076757;28;45596;-65
2022/12/21 02:44:35;;;;;;;;;43.00;37.00;;;;;;;;5076695;28;45337;-64
2022/12/21 02:47:13;;;;;;;;;41.00;34.67;;;;;;;;5076684;28;45455;-65
2022/12/21 02:49:44;;;;;;;;;40.67;33.67;;;;;;;;5076737;28;45424;-64
2022/12/21 02:52:17;;;;;;;;;37.33;32.33;;;;;;;;5076649;28;46630;-65
2022/12/21 02:54:44;;;;;;;;;43.00;34.00;;;;;;;;5075800;27;45329;-64
2022/12/21 02:57:09;;;;;;;;;36.33;31.00;;;;;;;;5076356;27;45405;-65
2022/12/21 02:59:37;;;;;;;;;36.00;32.67;;;;;;;;5075804;28;45531;-64
2022/12/21 03:02:11;;;;;;;;;36.00;29.00;;;;;;;;5076488;27;46339;-64
2022/12/21 03:04:43;;;;;;;;;30.33;27.33;;;;;;;;5076042;28;45371;-65
2022/12/21 03:07:12;;;;;;;;;30.00;24.33;;;;;;;;5076165;27;45425;-65
2022/12/21 03:09:46;;;;;;;;;28.67;24.33;;;;;;;;5076876;28;45441;-65
2022/12/21 03:12:17;;;;;;;;;27.67;22.67;;;;;;;;5076072;27;46306;-64
2022/12/21 03:14:45;;;;;;;;;27.00;25.33;;;;;;;;5076540;27;45296;-64
2022/12/21 03:17:10;;;;;;;;;26.67;22.67;;;;;;;;5075802;27;45402;-65
2022/12/21 03:19:53;;;;;;;;;26.33;17.67;;;;;;;;5075411;28;45428;-64
2022/12/21 03:22:24;;;;;;;;;24.00;19.33;;;;;;;;5075384;28;45699;-65
2022/12/21 03:24:56;;;;;;;;;28.33;21.67;;;;;;;;5075545;28;45452;-65
2022/12/21 03:27:24;;;;;;;;;30.00;23.00;;;;;;;;5076358;27;45348;-65
2022/12/21 03:29:53;;;;;;;;;27.67;25.00;;;;;;;;5075882;27;45329;-65
2022/12/21 03:32:22;;;;;;;;;24.67;19.33;;;;;;;;5076085;28;46190;-65
2022/12/21 03:34:50;;;;;;;;;23.00;23.00;;;;;;;;5075377;28;45534;-65
2022/12/21 03:37:18;;;;;;;;;23.33;19.00;;;;;;;;5076872;28;45406;-65
2022/12/21 03:39:47;;;;;;;;;25.67;18.67;;;;;;;;5076449;28;45457;-65
2022/12/21 03:42:18;;;;;;;;;26.33;21.00;;;;;;;;5075878;28;46511;-65
2022/12/21 03:44:47;;;;;;;;;21.67;18.33;;;;;;;;5075026;27;45422;-65
2022/12/21 03:47:15;;;;;;;;;26.33;20.00;;;;;;;;5076848;28;45281;-65
2022/12/21 03:49:50;;;;;;;;;24.67;18.67;;;;;;;;5075625;28;45504;-64
2022/12/21 03:52:17;;;;;;;;;20.67;16.00;;;;;;;;5068336;28;45441;-64
2022/12/21 03:54:56;;;;;;;;;17.33;15.00;;;;;;;;5075775;28;45469;-65
2022/12/21 03:57:23;;;;;;;;;12.33;9.33;;;;;;;;5060031;28;45232;-65
2022/12/21 03:59:50;;;;;;;;;9.00;8.50;;;;;;;;5076178;28;45325;-65
2022/12/21 04:02:21;;;;;;;;;9.75;6.00;;;;;;;;5075227;27;46267;-64
2022/12/21 04:05:00;;;;;;;;;6.50;6.50;;;;;;;;5091535;27;45376;-65
2022/12/21 04:07:27;;;;;;;;;5.75;4.00;;;;;;;;5093026;27;45448;-64
2022/12/21 04:09:59;;;;;;;;;4.50;4.00;;;;;;;;5077013;28;45814;-65
2022/12/21 04:12:37;;;;;;;;;6.00;4.25;;;;;;;;5080397;27;46726;-65
2022/12/21 04:15:05;;;;;;;;;7.50;3.75;;;;;;;;5079934;28;45430;-64
2022/12/21 04:17:30;;;;;;;;;3.75;3.25;;;;;;;;5080956;27;45422;-64
2022/12/21 04:19:58;;;;;;;;;5.00;3.25;;;;;;;;5078886;28;45399;-64
2022/12/21 04:28:07;;;;;;;;;5.50;5.00;;;;;;;;5080329;27;45401;-65
2022/12/21 04:30:36;;;;;;;;;4.50;4.50;;;;;;;;5079791;28;45491;-65
2022/12/21 04:33:01;;;;;;;;;6.00;6.00;;;;;;;;5079444;28;47209;-64
2022/12/21 04:35:26;;;;;;;;;12.50;7.25;;;;;;;;5078585;27;45538;-64
2022/12/21 04:37:52;;;;;;;;;5.75;5.00;;;;;;;;5077404;27;45595;-65
2022/12/21 04:40:17;;;;;;;;;9.00;8.00;;;;;;;;5078946;28;45587;-65
2022/12/21 04:42:42;;;;;;;;;8.75;8.75;;;;;;;;5077930;27;45563;-65
2022/12/21 04:45:07;;;;;;;;;9.00;7.50;;;;;;;;5078815;28;45377;-64
2022/12/21 04:47:33;;;;;;;;;12.25;10.50;;;;;;;;5078313;27;45541;-65
2022/12/21 04:49:58;;;;;;;;;9.00;7.25;;;;;;;;5078721;27;45451;-65
2022/12/21 04:52:23;;;;;;;;;12.50;12.00;;;;;;;;5078557;28;45416;-65
2022/12/21 04:54:48;;;;;;;;;15.00;10.25;;;;;;;;5077052;27;45472;-64
2022/12/21 04:57:14;;;;;;;;;10.50;8.50;;;;;;;;5078716;28;45276;-64
2022/12/21 04:59:39;;;;;;;;;18.00;14.33;;;;;;;;5077997;27;45525;-65
2022/12/21 05:02:04;;;;;;;;;19.00;14.67;;;;;;;;5078208;28;45446;-64
2022/12/21 05:04:29;;;;;;;;;16.50;11.75;;;;;;;;5078789;28;45423;-64
2022/12/21 05:06:55;;;;;;;;;16.67;14.67;;;;;;;;5079050;28;45349;-64
2022/12/21 05:09:20;;;;;;;;;15.67;15.00;;;;;;;;5079493;28;45494;-64
2022/12/21 05:11:45;;;;;;;;;29.33;24.67;;;;;;;;5078808;28;46465;-64
2022/12/21 05:14:10;;;;;;;;;22.00;14.67;;;;;;;;5077162;27;45292;-64
2022/12/21 05:16:38;;;;;;;;;12.50;12.50;;;;;;;;5078150;28;45644;-64
2022/12/21 05:19:03;;;;;;;;;16.67;13.00;;;;;;;;5077344;28;46406;-64
2022/12/21 05:21:28;;;;;;;;;16.67;15.33;;;;;;;;5076924;27;46523;-64
2022/12/21 05:23:53;;;;;;;;;14.33;14.00;;;;;;;;5077002;28;45313;-64
2022/12/21 05:26:18;;;;;;;;;16.00;11.00;;;;;;;;5078848;28;45302;-64
2022/12/21 05:28:44;;;;;;;;;14.75;10.75;;;;;;;;5077258;27;45226;-65
2022/12/21 05:31:10;;;;;;;;;17.33;14.33;;;;;;;;5076366;27;45491;-64
2022/12/21 05:33:35;;;;;;;;;13.67;12.33;;;;;;;;5077133;27;45509;-64
2022/12/21 05:36:02;;;;;;;;;15.33;12.33;;;;;;;;5077934;28;45371;-64
2022/12/21 05:38:27;;;;;;;;;17.00;14.00;;;;;;;;5078657;28;45224;-64
2022/12/21 05:40:52;;;;;;;;;13.75;13.00;;;;;;;;5077653;28;46357;-64
2022/12/21 05:43:18;;;;;;;;;16.67;10.67;;;;;;;;5077741;28;45470;-64
2022/12/21 05:45:43;;;;;;;;;10.75;10.25;;;;;;;;5076772;27;45330;-64
2022/12/21 05:48:09;;;;;;;;;17.25;12.75;;;;;;;;5077767;28;45215;-64
2022/12/21 05:50:34;;;;;;;;;15.67;14.00;;;;;;;;5076811;28;45705;-64
2022/12/21 05:52:59;;;;;;;;;15.33;13.33;;;;;;;;5059920;28;45359;-64
2022/12/21 05:55:25;;;;;;;;;14.75;12.00;;;;;;;;5077606;27;45330;-64
2022/12/21 05:57:50;;;;;;;;;15.33;14.00;;;;;;;;5078017;28;45399;-64
2022/12/21 06:00:15;;;;;;;;;20.33;15.67;;;;;;;;5076811;27;45478;-64
2022/12/21 06:02:40;;;;;;;;;14.33;12.00;;;;;;;;5057581;27;46311;-64
2022/12/21 06:05:06;;;;;;;;;13.67;12.00;;;;;;;;5077809;28;45516;-64
2022/12/21 06:07:31;;;;;;;;;11.50;8.75;;;;;;;;5078381;28;45391;-64
2022/12/21 06:09:56;;;;;;;;;10.75;10.25;;;;;;;;5064381;27;48180;-64
2022/12/21 06:12:21;;;;;;;;;14.00;12.25;;;;;;;;5098322;27;45746;-64
2022/12/21 06:14:47;;;;;;;;;11.25;9.00;;;;;;;;5098599;27;45346;-64
2022/12/21 06:17:12;;;;;;;;;20.67;14.00;;;;;;;;5098531;27;45975;-64
2022/12/21 06:19:37;;;;;;;;;8.50;8.50;;;;;;;;5087154;27;46434;-64
2022/12/21 06:22:02;;;;;;;;;20.33;16.33;;;;;;;;5076844;28;45479;-64
2022/12/21 06:24:28;;;;;;;;;38.67;35.33;;;;;;;;5076700;28;45373;-64
2022/12/21 06:26:53;;;;;;;;;25.00;19.00;;;;;;;;5082035;27;45422;-64
2022/12/21 06:29:18;;;;;;;;;15.33;13.00;;;;;;;;5098032;27;45556;-64
2022/12/21 06:31:43;;;;;;;;;14.33;13.33;;;;;;;;5098109;27;45311;-64
2022/12/21 06:34:12;;;;;;;;;13.50;10.75;;;;;;;;5098290;27;45374;-64
2022/12/21 06:36:37;;;;;;;;;11.67;9.33;;;;;;;;5077061;27;45662;-64
2022/12/21 06:39:02;;;;;;;;;12.75;12.00;;;;;;;;5077560;28;45414;-65
2022/12/21 06:41:28;;;;;;;;;14.75;11.75;;;;;;;;5077292;27;45426;-64
2022/12/21 06:43:53;;;;;;;;;15.00;12.00;;;;;;;;5078097;27;45433;-64
2022/12/21 06:46:19;;;;;;;;;15.33;11.33;;;;;;;;5077857;28;45431;-64
2022/12/21 06:48:44;;;;;;;;;19.67;12.00;;;;;;;;5077305;27;45801;-64
2022/12/21 06:51:11;;;;;;;;;14.25;12.75;;;;;;;;5076216;27;45498;-64
2022/12/21 06:53:37;;;;;;;;;16.00;13.67;;;;;;;;5077442;28;45429;-64
2022/12/21 06:56:04;;;;;;;;;12.50;12.00;;;;;;;;5077495;28;45455;-64
2022/12/21 06:58:30;;;;;;;;;21.25;14.75;;;;;;;;5075968;27;46176;-64
2022/12/21 07:00:55;;;;;;;;;16.33;11.67;;;;;;;;5076153;28;45330;-64
2022/12/21 07:03:21;;;;;;;;;12.75;11.50;;;;;;;;5076593;28;45340;-65
2022/12/21 07:05:46;;;;;;;;;17.00;12.33;;;;;;;;5075819;27;45618;-64
2022/12/21 07:08:11;;;;;;;;;13.50;11.50;;;;;;;;5076876;28;46214;-65
2022/12/21 07:10:37;;;;;;;;;14.00;10.00;;;;;;;;5077298;28;45364;-64
2022/12/21 07:13:02;;;;;;;;;11.00;8.25;;;;;;;;5076106;27;45382;-64
2022/12/21 07:15:28;;;;;;;;;19.00;17.67;;;;;;;;5075096;28;45502;-64
2022/12/21 07:17:53;;;;;;;;;13.25;11.00;;;;;;;;5075446;27;46346;-64
2022/12/21 07:20:18;;;;;;;;;12.75;10.00;;;;;;;;5075870;28;45323;-64
2022/12/21 07:22:43;;;;;;;;;9.50;9.50;;;;;;;;5076468;28;45454;-64
2022/12/21 07:25:08;;;;;;;;;8.25;8.25;;;;;;;;5075374;27;45530;-64
2022/12/21 07:27:34;;;;;;;;;10.50;8.25;;;;;;;;5076098;28;46363;-65
2022/12/21 07:29:59;;;;;;;;;13.75;11.50;;;;;;;;5074364;28;45299;-64
2022/12/21 07:32:24;;;;;;;;;13.00;8.00;;;;;;;;5076169;28;45255;-64
2022/12/21 07:34:49;;;;;;;;;11.00;10.00;;;;;;;;5075051;27;45379;-65
2022/12/21 07:37:14;;;;;;;;;14.00;10.00;;;;;;;;5074812;28;45447;-65
2022/12/21 07:39:40;;;;;;;;;18.25;11.50;;;;;;;;5075132;27;45238;-65
2022/12/21 07:42:05;;;;;;;;;11.25;11.25;;;;;;;;5075358;27;45545;-65
2022/12/21 07:44:30;;;;;;;;;12.25;11.75;;;;;;;;5076525;28;45408;-65
2022/12/21 07:46:55;;;;;;;;;14.00;11.25;;;;;;;;5079858;27;46578;-64
2022/12/21 07:49:21;;;;;;;;;20.33;18.67;;;;;;;;5079248;28;45475;-64
2022/12/21 07:51:46;;;;;;;;;13.75;13.00;;;;;;;;5079329;28;45609;-65
2022/12/21 07:54:11;;;;;;;;;9.00;9.00;;;;;;;;5079640;27;45594;-65
2022/12/21 07:56:36;;;;;;;;;11.50;10.75;;;;;;;;5077573;27;46509;-65
2022/12/21 07:59:02;;;;;;;;;10.00;9.50;;;;;;;;5079022;27;45286;-65
2022/12/21 08:01:27;;;;;;;;;12.00;11.00;;;;;;;;5079266;28;45388;-65
2022/12/21 08:03:53;;;;;;;;;17.75;12.00;;;;;;;;5078761;28;45398;-65
2022/12/21 08:06:18;;;;;;;;;19.33;10.67;;;;;;;;5078755;27;46613;-65
2022/12/21 08:08:43;;;;;;;;;16.33;13.00;;;;;;;;5079016;27;45415;-65
2022/12/21 08:11:13;;;;;;;;;14.00;11.00;;;;;;;;5079055;27;45283;-65
2022/12/21 08:13:39;;;;;;;;;23.33;16.33;;;;;;;;5078092;27;45999;-65
2022/12/21 08:16:05;;;;;;;;;15.50;12.00;;;;;;;;5077898;28;46665;-65
2022/12/21 08:18:32;;;;;;;;;17.00;12.33;;;;;;;;5078210;28;45271;-65
2022/12/21 08:20:57;;;;;;;;;15.00;13.00;;;;;;;;5079460;28;45391;-65
2022/12/21 08:23:22;;;;;;;;;16.25;14.00;;;;;;;;5079787;28;45262;-65
2022/12/21 08:25:48;;;;;;;;;15.00;12.67;;;;;;;;5080011;27;45376;-65
2022/12/21 08:28:13;;;;;;;;;19.00;13.00;;;;;;;;5079585;27;45486;-65
2022/12/21 08:30:38;;;;;;;;;28.00;25.67;;;;;;;;5079912;27;45565;-65
2022/12/21 08:33:04;;;;;;;;;16.00;16.00;;;;;;;;5079901;27;45410;-65
2022/12/21 08:35:29;;;;;;;;;28.33;25.00;;;;;;;;5079440;27;46793;-65
2022/12/21 08:37:54;;;;;;;;;14.00;11.00;;;;;;;;5092116;27;45392;-65
2022/12/21 08:40:19;;;;;;;;;20.33;13.33;;;;;;;;5100278;27;45289;-65
2022/12/21 08:42:44;;;;;;;;;13.50;11.25;;;;;;;;5078327;27;45712;-65
2022/12/21 08:45:10;;;;;;;;;14.00;12.50;;;;;;;;5079263;28;46361;-65
2022/12/21 08:47:36;;;;;;;;;13.25;12.00;;;;;;;;5078406;27;45476;-65
2022/12/21 08:50:01;;;;;;;;;13.00;13.00;;;;;;;;5079427;28;45386;-65
2022/12/21 08:52:26;;;;;;;;;18.00;14.00;;;;;;;;5079645;28;45415;-65
2022/12/21 08:54:51;;;;;;;;;12.00;11.67;;;;;;;;5079231;28;45438;-65
2022/12/21 08:57:17;;;;;;;;;24.33;20.67;;;;;;;;5077852;28;45336;-65
2022/12/21 08:59:42;;;;;;;;;20.67;18.00;;;;;;;;5076887;27;45607;-65
2022/12/21 09:02:09;;;;;;;;;13.00;13.00;;;;;;;;5077601;28;45344;-65
2022/12/21 09:04:34;;;;;;;;;18.33;17.67;;;;;;;;5077362;27;45558;-65
2022/12/21 09:06:59;;;;;;;;;13.50;12.25;;;;;;;;5076719;27;45252;-65
2022/12/21 09:09:25;;;;;;;;;16.00;14.67;;;;;;;;5077077;28;45411;-65
2022/12/21 09:11:50;;;;;;;;;17.67;14.00;;;;;;;;5076352;27;45447;-65
2022/12/21 09:14:15;;;;;;;;;18.00;13.67;;;;;;;;5077667;28;47112;-65
2022/12/21 09:16:40;;;;;;;;;19.00;15.33;;;;;;;;5078904;28;45442;-65
2022/12/21 09:19:06;;;;;;;;;18.67;16.67;;;;;;;;5077697;27;45377;-65
2022/12/21 09:21:31;;;;;;;;;18.33;15.33;;;;;;;;5079044;28;45317;-65
2022/12/21 09:23:56;;;;;;;;;21.67;17.33;;;;;;;;5076427;27;45568;-65
2022/12/21 09:26:22;;;;;;;;;16.00;14.33;;;;;;;;5077032;28;45512;-65
2022/12/21 09:28:47;;;;;;;;;17.33;15.00;;;;;;;;5078212;28;46083;-65
2022/12/21 09:31:17;;;;;;;;;17.00;15.67;;;;;;;;5073915;27;45256;-65
2022/12/21 09:33:42;;;;;;;;;19.67;17.00;;;;;;;;5079743;27;45614;-64
2022/12/21 09:36:08;;;;;;;;;20.33;17.00;;;;;;;;5073897;27;46917;-65
2022/12/21 09:38:33;;;;;;;;;29.67;25.00;;;;;;;;5076853;28;45420;-65
2022/12/21 09:41:11;;;;;;;;;23.67;16.67;;;;;;;;5078211;28;45315;-65
2022/12/21 09:43:37;;;;;;;;;23.00;19.67;;;;;;;;5076753;28;47066;-65
2022/12/21 09:46:07;;;;;;;;;16.00;14.00;;;;;;;;5075273;27;45450;-65
2022/12/21 09:48:44;;;;;;;;;16.67;15.33;;;;;;;;5073281;27;45540;-65
2022/12/21 09:51:15;;;;;;;;;17.33;9.67;;;;;;;;5077645;28;45441;-65
2022/12/21 09:53:49;;;;;;;;;20.33;17.33;;;;;;;;5073529;27;46548;-64
2022/12/21 09:56:16;;;;;;;;;12.33;7.33;;;;;;;;5075233;28;45440;-65
2022/12/21 09:58:43;;;;;;;;;21.33;12.67;;;;;;;;5076274;28;45471;-64
2022/12/21 10:01:24;;;;;;;;;17.00;14.33;;;;;;;;5072215;27;45524;-64
2022/12/21 10:04:08;;;;;;;;;14.67;13.67;;;;;;;;5081504;27;46367;-65
2022/12/21 10:06:33;;;;;;;;;21.33;17.33;;;;;;;;5076359;27;45381;-64
2022/12/21 10:09:01;;;;;;;;;17.00;14.33;;;;;;;;5075149;27;45834;-64
2022/12/21 10:11:39;;;;;;;;;22.33;16.33;;;;;;;;5076601;27;45743;-64
2022/12/21 10:14:04;;;;;;;;;21.33;15.00;;;;;;;;5077218;28;45475;-64
2022/12/21 10:16:40;;;;;;;;;14.33;12.00;;;;;;;;5075696;27;45423;-65
2022/12/21 10:19:16;;;;;;;;;13.25;13.25;;;;;;;;5075754;27;45399;-64
2022/12/21 10:22:00;;;;;;;;;19.00;15.33;;;;;;;;5076201;28;45436;-65
2022/12/21 10:24:28;;;;;;;;;16.67;13.00;;;;;;;;5074543;27;47106;-65
2022/12/21 10:26:57;;;;;;;;;15.67;12.00;;;;;;;;5075001;27;45502;-66
2022/12/21 10:29:26;;;;;;;;;16.00;14.67;;;;;;;;5071377;28;45386;-65
2022/12/21 10:31:52;;;;;;;;;15.00;14.67;;;;;;;;5077189;28;45427;-65
2022/12/21 10:34:24;;;;;;;;;11.67;11.67;;;;;;;;5076879;28;45488;-65
2022/12/21 10:36:53;;;;;;;;;16.00;13.25;;;;;;;;5076752;28;45438;-65
2022/12/21 10:39:19;;;;;;;;;11.50;9.75;;;;;;;;5076762;27;45344;-65
2022/12/21 10:41:47;;;;;;;;;11.75;8.75;;;;;;;;5077690;27;45422;-65
2022/12/21 10:44:12;;;;;;;;;8.50;8.50;;;;;;;;5076024;27;46749;-65
2022/12/21 10:46:38;;;;;;;;;11.75;7.00;;;;;;;;5075120;27;45294;-66
2022/12/21 10:49:10;;;;;;;;;13.33;10.33;;;;;;;;5075245;28;45310;-66
2022/12/21 10:51:36;;;;;;;;;12.67;11.00;;;;;;;;5074408;28;46900;-67
2022/12/21 10:54:03;;;;;;;;;13.00;12.33;;;;;;;;5075097;27;46339;-66
2022/12/21 10:56:30;;;;;;;;;13.00;12.00;;;;;;;;5069817;28;45454;-66
2022/12/21 10:58:59;;;;;;;;;13.75;13.75;;;;;;;;5075519;28;45523;-66
2022/12/21 11:01:28;;;;;;;;;10.50;10.25;;;;;;;;5071756;27;45542;-66
2022/12/21 11:04:07;;;;;;;;;13.25;13.00;;;;;;;;5074134;28;45332;-66
2022/12/21 11:06:32;;;;;;;;;14.00;11.67;;;;;;;;5074365;28;45823;-64
2022/12/21 11:08:57;;;;;;;;;13.75;12.00;;;;;;;;5076102;27;45391;-66
2022/12/21 11:11:30;;;;;;;;;13.50;9.50;;;;;;;;5074879;28;45531;-66
2022/12/21 11:13:56;;;;;;;;;16.75;12.25;;;;;;;;5061361;27;46415;-67
2022/12/21 11:16:21;;;;;;;;;16.00;11.00;;;;;;;;5074535;27;45543;-67
2022/12/21 11:18:48;;;;;;;;;7.00;7.00;;;;;;;;5074163;27;45523;-69
2022/12/21 11:21:33;;;;;;;;;15.00;12.25;;;;;;;;5077804;27;45477;-68
2022/12/21 11:24:02;;;;;;;;;12.50;8.00;;;;;;;;5076997;27;46310;-68
2022/12/21 11:26:30;;;;;;;;;15.00;12.00;;;;;;;;5078575;27;45569;-68
2022/12/21 11:29:04;;;;;;;;;10.75;9.00;;;;;;;;5077744;27;45409;-69
2022/12/21 11:31:29;;;;;;;;;12.25;8.50;;;;;;;;5077751;27;45542;-68
2022/12/21 11:33:55;;;;;;;;;11.00;10.25;;;;;;;;5077634;27;46707;-68
2022/12/21 11:36:20;;;;;;;;;13.25;10.50;;;;;;;;5078222;27;45482;-67
2022/12/21 11:38:45;;;;;;;;;14.25;12.25;;;;;;;;5077454;27;45451;-68
2022/12/21 11:41:17;;;;;;;;;12.50;10.50;;;;;;;;5079464;28;45446;-67
2022/12/21 11:43:49;;;;;;;;;16.67;13.00;;;;;;;;5077831;27;46642;-67
2022/12/21 11:46:27;;;;;;;;;12.75;12.00;;;;;;;;5080306;28;45391;-68
2022/12/21 11:49:09;;;;;;;;;58.00;49.00;;;;;;;;5079504;27;45332;-68
2022/12/21 11:51:42;;;;;;;;;17.00;13.33;;;;;;;;5080121;27;45242;-68
2022/12/21 11:54:16;;;;;;;;;11.25;9.00;;;;;;;;5079899;28;46290;-68
2022/12/21 11:56:44;;;;;;;;;11.25;11.25;;;;;;;;5079610;27;45333;-68
2022/12/21 11:59:36;;;;;;;;;11.75;8.75;;;;;;;;5080223;28;45261;-68
2022/12/21 12:02:17;;;;;;;;;9.25;8.25;;;;;;;;5076074;28;45415;-68
2022/12/21 12:05:00;;;;;;;;;8.50;7.50;;;;;;;;5079664;28;46773;-68
2022/12/21 12:07:38;;;;;;;;;8.25;5.00;;;;;;;;5078869;27;45446;-68
2022/12/21 12:10:21;;;;;;;;;7.00;5.50;;;;;;;;5061753;28;45464;-68
2022/12/21 12:12:49;;;;;;;;;10.25;7.00;;;;;;;;5080095;28;45429;-68
2022/12/21 12:15:33;;;;;;;;;6.00;6.00;;;;;;;;5079785;28;46604;-68
2022/12/21 12:18:17;;;;;;;;;7.25;7.25;;;;;;;;5079678;28;45373;-68
2022/12/21 12:20:50;;;;;;;;;14.00;10.00;;;;;;;;5079808;28;45427;-68
2022/12/21 12:23:24;;;;;;;;;5.25;5.25;;;;;;;;5078920;27;45410;-68
2022/12/21 12:26:03;;;;;;;;;11.50;8.00;;;;;;;;5079335;27;45541;-68
2022/12/21 12:28:41;;;;;;;;;10.75;7.25;;;;;;;;5079424;28;45328;-68
2022/12/21 12:31:18;;;;;;;;;7.25;7.25;;;;;;;;5079697;28;45285;-68
2022/12/21 12:33:46;;;;;;;;;10.00;7.50;;;;;;;;5079872;28;45423;-68
2022/12/21 12:36:30;;;;;;;;;8.25;8.25;;;;;;;;5079393;27;45368;-68
2022/12/21 12:38:55;;;;;;;;;8.50;8.00;;;;;;;;5078811;27;45520;-67
2022/12/21 12:41:23;;;;;;;;;8.50;7.00;;;;;;;;5079596;28;45423;-68
2022/12/21 12:43:59;;;;;;;;;9.00;7.75;;;;;;;;5079557;28;45614;-68
2022/12/21 12:46:40;;;;;;;;;8.00;5.67;;;;;;;;5079215;28;46269;-68
2022/12/21 12:49:24;;;;;;;;;11.75;8.25;;;;;;;;5079082;28;45495;-68
2022/12/21 12:52:06;;;;;;;;;8.25;8.25;;;;;;;;5079366;27;45453;-68
2022/12/21 12:54:38;;;;;;;;;6.75;6.75;;;;;;;;5078773;27;45399;-68
2022/12/21 12:57:10;;;;;;;;;13.25;9.00;;;;;;;;5076771;27;46668;-68
2022/12/21 12:59:58;;;;;;;;;8.00;6.00;;;;;;;;5078922;28;45889;-67
2022/12/21 13:02:59;;;;;;;;;12.25;7.50;;;;;;;;4951864;28;45679;-67
2022/12/21 13:05:30;;;;;;;;;8.00;7.75;;;;;;;;4923563;28;45485;-67
2022/12/21 13:07:58;;;;;;;;;8.00;8.00;;;;;;;;4937052;28;46123;-67
2022/12/21 13:10:31;;;;;;;;;7.50;7.00;;;;;;;;4938233;28;45433;-67
2022/12/21 13:13:08;;;;;;;;;9.00;6.25;;;;;;;;4905928;28;46150;-66
2022/12/21 13:15:34;;;;;;;;;8.25;6.75;;;;;;;;4935930;28;45546;-65
2022/12/21 13:18:18;;;;;;;;;20.00;18.00;;;;;;;;4935631;28;45533;-67
2022/12/21 13:20:46;;;;;;;;;9.75;6.75;;;;;;;;4935543;28;45398;-66
2022/12/21 13:23:14;;;;;;;;;13.75;9.00;;;;;;;;4931330;28;45508;-67
2022/12/21 13:25:48;;;;;;;;;5.00;5.00;;;;;;;;4923299;28;45719;-66
2022/12/21 13:28:26;;;;;;;;;8.00;7.00;;;;;;;;4916766;28;45541;-65
2022/12/21 13:30:53;;;;;;;;;8.00;7.25;;;;;;;;4915727;28;45384;-67
2022/12/21 13:33:20;;;;;;;;;6.75;6.75;;;;;;;;4917900;28;45670;-67
2022/12/21 13:36:04;;;;;;;;;15.50;10.75;;;;;;;;4918465;28;45459;-66
2022/12/21 13:38:53;;;;;;;;;8.00;6.00;;;;;;;;4929770;28;47207;-66
2022/12/21 13:41:21;;;;;;;;;5.00;5.00;;;;;;;;4972792;28;45495;-67
2022/12/21 13:43:51;;;;;;;;;11.00;9.00;;;;;;;;4973374;28;45845;-67
2022/12/21 13:46:17;;;;;;;;;7.00;4.00;;;;;;;;4976666;28;45853;-67
2022/12/21 13:48:44;;;;;;;;;6.00;5.00;;;;;;;;4975599;28;46396;-67
2022/12/21 13:51:22;;;;;;;;;6.50;6.25;;;;;;;;4976445;28;45284;-67
2022/12/21 13:53:50;;;;;;;;;6.75;6.00;;;;;;;;4976449;28;45395;-67
2022/12/21 13:56:26;;;;;;;;;6.25;6.25;;;;;;;;4976588;28;45446;-67
2022/12/21 13:58:55;;;;;;;;;6.00;5.00;;;;;;;;4976334;28;46277;-67
2022/12/21 14:01:23;;;;;;;;;6.75;5.75;;;;;;;;4976114;28;45441;-67
2022/12/21 14:03:54;;;;;;;;;6.00;3.50;;;;;;;;4976428;28;45359;-67
2022/12/21 14:06:38;;;;;;;;;7.75;5.50;;;;;;;;4975864;28;45419;-67
2022/12/21 14:09:06;;;;;;;;;4.50;4.00;;;;;;;;4976019;28;45450;-67
2022/12/21 14:11:49;;;;;;;;;10.75;7.50;;;;;;;;4976088;28;45500;-67
2022/12/21 14:14:35;;;;;;;;;4.50;3.50;;;;;;;;4976084;28;45379;-67
2022/12/21 14:17:02;;;;;;;;;10.00;8.00;;;;;;;;4899117;29;45321;-67
2022/12/21 14:19:28;;;;;;;;;5.00;5.00;;;;;;;;4973400;28;46394;-67
2022/12/21 14:21:53;;;;;;;;;23.00;23.00;;;;;;;;4988081;28;46016;-67
2022/12/21 14:24:21;;;;;;;;;9.00;7.25;;;;;;;;4995712;28;45386;-67
2022/12/21 14:27:01;;;;;;;;;11.25;9.50;;;;;;;;4995966;28;45510;-67
2022/12/21 14:29:31;;;;;;;;;7.00;7.00;;;;;;;;4995013;28;45522;-67
2022/12/21 14:31:58;;;;;;;;;8.00;8.00;;;;;;;;4995375;28;45556;-67
2022/12/21 14:34:24;;;;;;;;;9.00;7.50;;;;;;;;4995737;28;45467;-67
2022/12/21 14:37:06;;;;;;;;;7.50;7.50;;;;;;;;4993525;28;45411;-67